sensor_id;sensor_type;location;lat;lon;timestamp;temperature;humidity
46508;DHT22;32223;53.654;10.014;2023-10-09T00:02:11;10.50;99.90
46508;DHT22;32223;53.654;10.014;2023-10-09T00:04:38;10.50;99.90
46508;DHT22;32223;53.654;10.014;2023-10-09T00:07:07;10.50;99.90
46508;DHT22;32223;53.654;10.014;2023-10-09T00:09:36;10.50;99.90
46508;DHT22;32223;53.654;10.014;2023-10-09T00:12:20;10.50;99.90
46508;DHT22;32223;53.654;10.014;2023-10-09T00:14:49;10.50;99.90
46508;DHT22;32223;53.654;10.014;2023-10-09T00:17:16;10.50;99.90
46508;DHT22;32223;53.654;10.014;2023-10-09T00:19:46;10.50;99.90
46508;DHT22;32223;53.654;10.014;2023-10-09T00:22:13;10.50;99.90
46508;DHT22;32223;53.654;10.014;2023-10-09T00:24:57;10.50;99.90
46508;DHT22;32223;53.654;10.014;2023-10-09T00:27:45;10.40;99.90
46508;DHT22;32223;53.654;10.014;2023-10-09T00:30:14;10.40;99.90
46508;DHT22;32223;53.654;10.014;2023-10-09T00:32:55;10.50;99.90
46508;DHT22;32223;53.654;10.014;2023-10-09T00:35:36;10.40;99.90
46508;DHT22;32223;53.654;10.014;2023-10-09T00:38:05;10.40;99.90
46508;DHT22;32223;53.654;10.014;2023-10-09T00:40:49;10.40;99.90
46508;DHT22;32223;53.654;10.014;2023-10-09T00:43:27;10.50;99.90
46508;DHT22;32223;53.654;10.014;2023-10-09T00:45:54;10.50;99.90
46508;DHT22;32223;53.654;10.014;2023-10-09T00:48:22;10.40;99.90
46508;DHT22;32223;53.654;10.014;2023-10-09T00:51:00;10.40;99.90
46508;DHT22;32223;53.654;10.014;2023-10-09T00:53:27;10.50;99.90
46508;DHT22;32223;53.654;10.014;2023-10-09T00:56:01;10.40;99.90
46508;DHT22;32223;53.654;10.014;2023-10-09T00:58:45;10.40;99.90
46508;DHT22;32223;53.654;10.014;2023-10-09T01:01:12;10.30;99.90
46508;DHT22;32223;53.654;10.014;2023-10-09T01:03:42;10.30;99.90
46508;DHT22;32223;53.654;10.014;2023-10-09T01:06:11;10.30;99.90
46508;DHT22;32223;53.654;10.014;2023-10-09T01:08:39;10.30;99.90
46508;DHT22;32223;53.654;10.014;2023-10-09T01:11:10;10.30;99.90
46508;DHT22;32223;53.654;10.014;2023-10-09T01:13:44;10.30;99.90
46508;DHT22;32223;53.654;10.014;2023-10-09T01:16:16;10.30;99.90
46508;DHT22;32223;53.654;10.014;2023-10-09T01:18:47;10.30;99.90
46508;DHT22;32223;53.654;10.014;2023-10-09T01:21:18;10.20;99.90
46508;DHT22;32223;53.654;10.014;2023-10-09T01:23:49;10.20;99.90
46508;DHT22;32223;53.654;10.014;2023-10-09T01:26:27;10.20;99.90
46508;DHT22;32223;53.654;10.014;2023-10-09T01:28:58;10.20;99.90
46508;DHT22;32223;53.654;10.014;2023-10-09T01:31:26;10.20;99.90
46508;DHT22;32223;53.654;10.014;2023-10-09T01:34:04;10.20;99.90
46508;DHT22;32223;53.654;10.014;2023-10-09T01:36:36;10.20;99.90
46508;DHT22;32223;53.654;10.014;2023-10-09T01:39:04;10.20;99.90
46508;DHT22;32223;53.654;10.014;2023-10-09T01:41:48;10.10;99.90
46508;DHT22;32223;53.654;10.014;2023-10-09T01:44:17;10.20;99.90
46508;DHT22;32223;53.654;10.014;2023-10-09T01:46:44;10.10;99.90
46508;DHT22;32223;53.654;10.014;2023-10-09T01:49:12;10.10;99.90
46508;DHT22;32223;53.654;10.014;2023-10-09T01:51:45;10.10;99.90
46508;DHT22;32223;53.654;10.014;2023-10-09T01:54:12;10.10;99.90
46508;DHT22;32223;53.654;10.014;2023-10-09T01:56:53;10.10;99.90
46508;DHT22;32223;53.654;10.014;2023-10-09T01:59:19;10.10;99.90
46508;DHT22;32223;53.654;10.014;2023-10-09T02:01:45;10.00;99.90
46508;DHT22;32223;53.654;10.014;2023-10-09T02:04:13;10.00;99.90
46508;DHT22;32223;53.654;10.014;2023-10-09T02:06:39;10.00;99.90
46508;DHT22;32223;53.654;10.014;2023-10-09T02:09:05;10.00;99.90
46508;DHT22;32223;53.654;10.014;2023-10-09T02:11:32;10.00;99.90
46508;DHT22;32223;53.654;10.014;2023-10-09T02:14:06;10.00;99.90
46508;DHT22;32223;53.654;10.014;2023-10-09T02:16:45;10.00;99.90
46508;DHT22;32223;53.654;10.014;2023-10-09T02:19:28;10.00;99.90
46508;DHT22;32223;53.654;10.014;2023-10-09T02:22:03;9.90;99.90
46508;DHT22;32223;53.654;10.014;2023-10-09T02:24:40;9.90;99.90
46508;DHT22;32223;53.654;10.014;2023-10-09T02:27:35;9.90;99.90
46508;DHT22;32223;53.654;10.014;2023-10-09T02:30:19;9.90;99.90
46508;DHT22;32223;53.654;10.014;2023-10-09T02:32:53;9.90;99.90
46508;DHT22;32223;53.654;10.014;2023-10-09T02:35:32;9.80;99.90
46508;DHT22;32223;53.654;10.014;2023-10-09T02:38:05;9.80;99.90
46508;DHT22;32223;53.654;10.014;2023-10-09T02:40:36;9.90;99.90
46508;DHT22;32223;53.654;10.014;2023-10-09T02:43:31;10.00;99.90
46508;DHT22;32223;53.654;10.014;2023-10-09T02:46:11;10.00;99.90
46508;DHT22;32223;53.654;10.014;2023-10-09T02:48:43;9.90;99.90
46508;DHT22;32223;53.654;10.014;2023-10-09T02:51:11;9.90;99.90
46508;DHT22;32223;53.654;10.014;2023-10-09T02:53:46;9.90;99.90
46508;DHT22;32223;53.654;10.014;2023-10-09T02:56:15;9.90;99.90
46508;DHT22;32223;53.654;10.014;2023-10-09T02:58:43;9.90;99.90
46508;DHT22;32223;53.654;10.014;2023-10-09T03:01:11;9.90;99.90
46508;DHT22;32223;53.654;10.014;2023-10-09T03:03:41;9.90;99.90
46508;DHT22;32223;53.654;10.014;2023-10-09T03:06:14;9.80;99.90
46508;DHT22;32223;53.654;10.014;2023-10-09T03:08:44;9.80;99.90
46508;DHT22;32223;53.654;10.014;2023-10-09T03:11:13;9.80;99.90
46508;DHT22;32223;53.654;10.014;2023-10-09T03:13:43;9.80;99.90
46508;DHT22;32223;53.654;10.014;2023-10-09T03:16:10;9.80;99.90
46508;DHT22;32223;53.654;10.014;2023-10-09T03:18:45;9.70;99.90
46508;DHT22;32223;53.654;10.014;2023-10-09T03:21:12;9.70;99.90
46508;DHT22;32223;53.654;10.014;2023-10-09T03:23:40;9.70;99.90
46508;DHT22;32223;53.654;10.014;2023-10-09T03:26:05;9.70;99.90
46508;DHT22;32223;53.654;10.014;2023-10-09T03:28:33;9.70;99.90
46508;DHT22;32223;53.654;10.014;2023-10-09T03:30:59;9.70;99.90
46508;DHT22;32223;53.654;10.014;2023-10-09T03:33:31;9.70;99.90
46508;DHT22;32223;53.654;10.014;2023-10-09T03:35:59;9.70;99.90
46508;DHT22;32223;53.654;10.014;2023-10-09T03:38:26;9.70;99.90
46508;DHT22;32223;53.654;10.014;2023-10-09T03:40:54;9.60;99.90
46508;DHT22;32223;53.654;10.014;2023-10-09T03:43:20;9.70;99.90
46508;DHT22;32223;53.654;10.014;2023-10-09T03:45:47;9.80;99.90
46508;DHT22;32223;53.654;10.014;2023-10-09T03:48:18;9.70;99.90
46508;DHT22;32223;53.654;10.014;2023-10-09T03:50:58;9.70;99.90
46508;DHT22;32223;53.654;10.014;2023-10-09T03:53:38;9.70;99.90
46508;DHT22;32223;53.654;10.014;2023-10-09T03:56:08;9.70;99.90
46508;DHT22;32223;53.654;10.014;2023-10-09T03:58:41;9.70;99.90
46508;DHT22;32223;53.654;10.014;2023-10-09T04:01:12;9.80;99.90
46508;DHT22;32223;53.654;10.014;2023-10-09T04:03:58;9.70;99.90
46508;DHT22;32223;53.654;10.014;2023-10-09T04:06:29;9.60;99.90
46508;DHT22;32223;53.654;10.014;2023-10-09T04:09:02;9.70;99.90
46508;DHT22;32223;53.654;10.014;2023-10-09T04:11:47;9.70;99.90
46508;DHT22;32223;53.654;10.014;2023-10-09T04:14:13;9.70;99.90
46508;DHT22;32223;53.654;10.014;2023-10-09T04:16:47;9.80;99.90
46508;DHT22;32223;53.654;10.014;2023-10-09T04:19:48;9.70;99.90
46508;DHT22;32223;53.654;10.014;2023-10-09T04:22:24;9.70;99.90
46508;DHT22;32223;53.654;10.014;2023-10-09T04:24:56;9.70;99.90
46508;DHT22;32223;53.654;10.014;2023-10-09T04:27:22;9.70;99.90
46508;DHT22;32223;53.654;10.014;2023-10-09T04:29:52;9.80;99.90
46508;DHT22;32223;53.654;10.014;2023-10-09T04:32:19;9.80;99.90
46508;DHT22;32223;53.654;10.014;2023-10-09T04:34:50;9.70;99.90
46508;DHT22;32223;53.654;10.014;2023-10-09T04:37:22;9.70;99.90
46508;DHT22;32223;53.654;10.014;2023-10-09T04:40:04;9.70;99.90
46508;DHT22;32223;53.654;10.014;2023-10-09T04:42:59;9.70;99.90
46508;DHT22;32223;53.654;10.014;2023-10-09T04:45:25;9.70;99.90
46508;DHT22;32223;53.654;10.014;2023-10-09T04:48:09;9.60;99.90
46508;DHT22;32223;53.654;10.014;2023-10-09T04:50:36;9.70;99.90
46508;DHT22;32223;53.654;10.014;2023-10-09T04:53:12;9.80;99.90
46508;DHT22;32223;53.654;10.014;2023-10-09T04:55:41;9.80;99.90
46508;DHT22;32223;53.654;10.014;2023-10-09T04:58:09;9.90;99.90
46508;DHT22;32223;53.654;10.014;2023-10-09T05:00:39;9.90;99.90
46508;DHT22;32223;53.654;10.014;2023-10-09T05:03:08;9.90;99.90
46508;DHT22;32223;53.654;10.014;2023-10-09T05:05:52;9.90;99.90
46508;DHT22;32223;53.654;10.014;2023-10-09T05:08:28;9.80;99.90
46508;DHT22;32223;53.654;10.014;2023-10-09T05:11:01;9.70;99.90
46508;DHT22;32223;53.654;10.014;2023-10-09T05:13:34;9.70;99.90
46508;DHT22;32223;53.654;10.014;2023-10-09T05:16:03;9.70;99.90
46508;DHT22;32223;53.654;10.014;2023-10-09T05:18:28;9.80;99.90
46508;DHT22;32223;53.654;10.014;2023-10-09T05:21:08;9.80;99.90
46508;DHT22;32223;53.654;10.014;2023-10-09T05:23:42;9.70;99.90
46508;DHT22;32223;53.654;10.014;2023-10-09T05:26:17;9.70;99.90
46508;DHT22;32223;53.654;10.014;2023-10-09T05:29:03;9.70;99.90
46508;DHT22;32223;53.654;10.014;2023-10-09T05:31:48;9.60;99.90
46508;DHT22;32223;53.654;10.014;2023-10-09T05:34:33;9.70;99.90
46508;DHT22;32223;53.654;10.014;2023-10-09T05:37:03;9.70;99.90
46508;DHT22;32223;53.654;10.014;2023-10-09T05:39:49;9.60;99.90
46508;DHT22;32223;53.654;10.014;2023-10-09T05:42:24;9.60;99.90
46508;DHT22;32223;53.654;10.014;2023-10-09T05:45:15;9.60;99.90
46508;DHT22;32223;53.654;10.014;2023-10-09T05:47:47;9.60;99.90
46508;DHT22;32223;53.654;10.014;2023-10-09T05:50:22;9.60;99.90
46508;DHT22;32223;53.654;10.014;2023-10-09T05:52:48;9.60;99.90
46508;DHT22;32223;53.654;10.014;2023-10-09T05:55:17;9.60;99.90
46508;DHT22;32223;53.654;10.014;2023-10-09T05:58:05;9.60;99.90
46508;DHT22;32223;53.654;10.014;2023-10-09T06:00:50;9.50;99.90
46508;DHT22;32223;53.654;10.014;2023-10-09T06:03:34;9.50;99.90
46508;DHT22;32223;53.654;10.014;2023-10-09T06:06:20;9.50;99.90
46508;DHT22;32223;53.654;10.014;2023-10-09T06:09:05;9.60;99.90
46508;DHT22;32223;53.654;10.014;2023-10-09T06:11:47;9.50;99.90
46508;DHT22;32223;53.654;10.014;2023-10-09T06:14:36;9.50;99.90
46508;DHT22;32223;53.654;10.014;2023-10-09T06:17:01;9.50;99.90
46508;DHT22;32223;53.654;10.014;2023-10-09T06:19:39;9.50;99.90
46508;DHT22;32223;53.654;10.014;2023-10-09T06:22:11;9.50;99.90
46508;DHT22;32223;53.654;10.014;2023-10-09T06:24:55;9.50;99.90
46508;DHT22;32223;53.654;10.014;2023-10-09T06:27:23;9.50;99.90
46508;DHT22;32223;53.654;10.014;2023-10-09T06:30:12;9.50;99.90
46508;DHT22;32223;53.654;10.014;2023-10-09T06:32:38;9.40;99.90
46508;DHT22;32223;53.654;10.014;2023-10-09T06:35:15;9.50;99.90
46508;DHT22;32223;53.654;10.014;2023-10-09T06:38:12;9.40;99.90
46508;DHT22;32223;53.654;10.014;2023-10-09T06:40:49;9.40;99.90
46508;DHT22;32223;53.654;10.014;2023-10-09T06:43:18;9.40;99.90
46508;DHT22;32223;53.654;10.014;2023-10-09T06:45:52;9.50;99.90
46508;DHT22;32223;53.654;10.014;2023-10-09T06:48:44;9.50;99.90
46508;DHT22;32223;53.654;10.014;2023-10-09T06:51:13;9.50;99.90
46508;DHT22;32223;53.654;10.014;2023-10-09T06:54:01;9.50;99.90
46508;DHT22;32223;53.654;10.014;2023-10-09T06:56:29;9.50;99.90
46508;DHT22;32223;53.654;10.014;2023-10-09T07:01:26;9.50;99.90
46508;DHT22;32223;53.654;10.014;2023-10-09T07:04:08;9.50;99.90
46508;DHT22;32223;53.654;10.014;2023-10-09T07:07:06;9.60;99.90
46508;DHT22;32223;53.654;10.014;2023-10-09T07:09:47;9.60;99.90
46508;DHT22;32223;53.654;10.014;2023-10-09T07:12:34;9.60;99.90
46508;DHT22;32223;53.654;10.014;2023-10-09T07:15:08;9.60;99.90
46508;DHT22;32223;53.654;10.014;2023-10-09T07:17:33;9.60;99.90
46508;DHT22;32223;53.654;10.014;2023-10-09T07:20:00;9.60;99.90
46508;DHT22;32223;53.654;10.014;2023-10-09T07:23:00;9.60;99.90
46508;DHT22;32223;53.654;10.014;2023-10-09T07:25:42;9.60;99.90
46508;DHT22;32223;53.654;10.014;2023-10-09T07:28:21;9.70;99.90
46508;DHT22;32223;53.654;10.014;2023-10-09T07:31:16;9.70;99.90
46508;DHT22;32223;53.654;10.014;2023-10-09T07:33:52;9.70;99.90
46508;DHT22;32223;53.654;10.014;2023-10-09T07:36:25;9.70;99.90
46508;DHT22;32223;53.654;10.014;2023-10-09T07:39:04;9.70;99.90
46508;DHT22;32223;53.654;10.014;2023-10-09T07:41:39;9.80;99.90
46508;DHT22;32223;53.654;10.014;2023-10-09T07:44:10;9.80;99.90
46508;DHT22;32223;53.654;10.014;2023-10-09T07:46:45;9.80;99.90
46508;DHT22;32223;53.654;10.014;2023-10-09T07:49:17;9.80;99.90
46508;DHT22;32223;53.654;10.014;2023-10-09T07:51:50;9.80;99.90
46508;DHT22;32223;53.654;10.014;2023-10-09T07:54:18;9.90;99.90
46508;DHT22;32223;53.654;10.014;2023-10-09T07:56:58;9.90;99.90
46508;DHT22;32223;53.654;10.014;2023-10-09T07:59:34;9.90;99.90
46508;DHT22;32223;53.654;10.014;2023-10-09T08:02:02;10.00;99.90
46508;DHT22;32223;53.654;10.014;2023-10-09T08:04:29;9.90;99.90
46508;DHT22;32223;53.654;10.014;2023-10-09T08:07:08;10.00;99.90
46508;DHT22;32223;53.654;10.014;2023-10-09T08:09:35;10.00;99.90
46508;DHT22;32223;53.654;10.014;2023-10-09T08:12:36;10.00;99.90
46508;DHT22;32223;53.654;10.014;2023-10-09T08:15:14;10.00;99.90
46508;DHT22;32223;53.654;10.014;2023-10-09T08:17:40;10.00;99.90
46508;DHT22;32223;53.654;10.014;2023-10-09T08:20:13;10.00;99.90
46508;DHT22;32223;53.654;10.014;2023-10-09T08:22:42;10.00;99.90
46508;DHT22;32223;53.654;10.014;2023-10-09T08:25:11;10.00;99.90
46508;DHT22;32223;53.654;10.014;2023-10-09T08:27:59;10.00;99.90
46508;DHT22;32223;53.654;10.014;2023-10-09T08:30:54;10.10;99.90
46508;DHT22;32223;53.654;10.014;2023-10-09T08:33:20;10.10;99.90
46508;DHT22;32223;53.654;10.014;2023-10-09T08:35:54;10.10;99.90
46508;DHT22;32223;53.654;10.014;2023-10-09T08:38:27;10.10;99.90
46508;DHT22;32223;53.654;10.014;2023-10-09T08:41:09;10.10;99.90
46508;DHT22;32223;53.654;10.014;2023-10-09T08:43:53;10.10;99.90
46508;DHT22;32223;53.654;10.014;2023-10-09T08:46:23;10.20;99.90
46508;DHT22;32223;53.654;10.014;2023-10-09T08:48:53;10.20;99.90
46508;DHT22;32223;53.654;10.014;2023-10-09T08:51:19;10.30;99.90
46508;DHT22;32223;53.654;10.014;2023-10-09T08:53:46;10.30;99.90
46508;DHT22;32223;53.654;10.014;2023-10-09T08:56:17;10.30;99.90
46508;DHT22;32223;53.654;10.014;2023-10-09T08:58:52;10.30;99.90
46508;DHT22;32223;53.654;10.014;2023-10-09T09:01:19;10.40;99.90
46508;DHT22;32223;53.654;10.014;2023-10-09T09:03:47;10.50;99.90
46508;DHT22;32223;53.654;10.014;2023-10-09T09:06:14;10.60;99.90
46508;DHT22;32223;53.654;10.014;2023-10-09T09:08:40;10.60;99.90
46508;DHT22;32223;53.654;10.014;2023-10-09T09:11:14;10.60;99.90
46508;DHT22;32223;53.654;10.014;2023-10-09T09:13:43;10.60;99.90
46508;DHT22;32223;53.654;10.014;2023-10-09T09:16:17;10.60;99.90
46508;DHT22;32223;53.654;10.014;2023-10-09T09:18:56;10.60;99.90
46508;DHT22;32223;53.654;10.014;2023-10-09T09:21:26;10.60;99.90
46508;DHT22;32223;53.654;10.014;2023-10-09T09:23:54;10.60;99.90
46508;DHT22;32223;53.654;10.014;2023-10-09T09:26:33;10.60;99.90
46508;DHT22;32223;53.654;10.014;2023-10-09T09:29:05;10.70;99.90
46508;DHT22;32223;53.654;10.014;2023-10-09T09:31:34;10.80;99.90
46508;DHT22;32223;53.654;10.014;2023-10-09T09:34:07;10.80;99.90
46508;DHT22;32223;53.654;10.014;2023-10-09T09:36:59;10.90;99.90
46508;DHT22;32223;53.654;10.014;2023-10-09T09:39:29;10.80;99.90
46508;DHT22;32223;53.654;10.014;2023-10-09T09:41:56;10.80;99.90
46508;DHT22;32223;53.654;10.014;2023-10-09T09:44:23;10.90;99.90
46508;DHT22;32223;53.654;10.014;2023-10-09T09:46:57;11.00;99.90
46508;DHT22;32223;53.654;10.014;2023-10-09T09:49:26;11.00;99.90
46508;DHT22;32223;53.654;10.014;2023-10-09T09:52:02;11.00;99.90
46508;DHT22;32223;53.654;10.014;2023-10-09T09:54:36;11.10;99.90
46508;DHT22;32223;53.654;10.014;2023-10-09T09:57:03;11.10;99.90
46508;DHT22;32223;53.654;10.014;2023-10-09T09:59:40;11.10;99.90
46508;DHT22;32223;53.654;10.014;2023-10-09T10:02:20;11.10;99.90
46508;DHT22;32223;53.654;10.014;2023-10-09T10:04:47;11.10;99.90
46508;DHT22;32223;53.654;10.014;2023-10-09T10:07:17;11.20;99.90
46508;DHT22;32223;53.654;10.014;2023-10-09T10:09:46;11.20;99.90
46508;DHT22;32223;53.654;10.014;2023-10-09T10:12:15;11.20;99.90
46508;DHT22;32223;53.654;10.014;2023-10-09T10:15:00;11.20;99.90
46508;DHT22;32223;53.654;10.014;2023-10-09T10:20:25;11.20;99.90
46508;DHT22;32223;53.654;10.014;2023-10-09T10:23:14;11.20;99.90
46508;DHT22;32223;53.654;10.014;2023-10-09T10:25:43;11.20;99.90
46508;DHT22;32223;53.654;10.014;2023-10-09T10:30:57;11.30;99.90
46508;DHT22;32223;53.654;10.014;2023-10-09T10:33:26;11.40;99.90
46508;DHT22;32223;53.654;10.014;2023-10-09T10:35:53;11.40;99.90
46508;DHT22;32223;53.654;10.014;2023-10-09T10:38:31;11.40;99.90
46508;DHT22;32223;53.654;10.014;2023-10-09T10:41:08;11.40;99.90
46508;DHT22;32223;53.654;10.014;2023-10-09T10:43:37;11.50;99.90
46508;DHT22;32223;53.654;10.014;2023-10-09T10:46:19;11.50;99.90
46508;DHT22;32223;53.654;10.014;2023-10-09T10:49:04;11.50;99.90
46508;DHT22;32223;53.654;10.014;2023-10-09T10:51:56;11.60;99.90
46508;DHT22;32223;53.654;10.014;2023-10-09T10:54:40;11.50;99.90
46508;DHT22;32223;53.654;10.014;2023-10-09T10:57:20;11.50;99.90
46508;DHT22;32223;53.654;10.014;2023-10-09T10:59:54;11.50;99.90
46508;DHT22;32223;53.654;10.014;2023-10-09T11:02:39;11.50;99.90
46508;DHT22;32223;53.654;10.014;2023-10-09T11:05:06;11.60;99.90
46508;DHT22;32223;53.654;10.014;2023-10-09T11:07:50;11.50;99.90
46508;DHT22;32223;53.654;10.014;2023-10-09T11:10:22;11.60;99.90
46508;DHT22;32223;53.654;10.014;2023-10-09T11:12:52;11.60;99.90
46508;DHT22;32223;53.654;10.014;2023-10-09T11:15:33;11.50;99.90
46508;DHT22;32223;53.654;10.014;2023-10-09T11:18:14;11.60;99.90
46508;DHT22;32223;53.654;10.014;2023-10-09T11:20:56;11.50;99.90
46508;DHT22;32223;53.654;10.014;2023-10-09T11:23:42;11.60;99.90
46508;DHT22;32223;53.654;10.014;2023-10-09T11:26:17;11.60;99.90
46508;DHT22;32223;53.654;10.014;2023-10-09T11:32:07;11.70;99.90
46508;DHT22;32223;53.654;10.014;2023-10-09T11:35:13;11.70;99.90
46508;DHT22;32223;53.654;10.014;2023-10-09T11:37:44;11.80;99.90
46508;DHT22;32223;53.654;10.014;2023-10-09T11:40:33;11.80;99.90
46508;DHT22;32223;53.654;10.014;2023-10-09T11:43:17;11.70;99.90
46508;DHT22;32223;53.654;10.014;2023-10-09T11:45:43;11.80;99.90
46508;DHT22;32223;53.654;10.014;2023-10-09T11:48:20;11.80;99.90
46508;DHT22;32223;53.654;10.014;2023-10-09T11:51:15;11.80;99.90
46508;DHT22;32223;53.654;10.014;2023-10-09T11:53:46;11.90;99.90
46508;DHT22;32223;53.654;10.014;2023-10-09T11:56:15;12.00;99.90
46508;DHT22;32223;53.654;10.014;2023-10-09T11:58:47;12.10;99.90
46508;DHT22;32223;53.654;10.014;2023-10-09T12:01:15;12.20;99.90
46508;DHT22;32223;53.654;10.014;2023-10-09T12:03:49;12.20;99.90
46508;DHT22;32223;53.654;10.014;2023-10-09T12:06:16;12.30;99.90
46508;DHT22;32223;53.654;10.014;2023-10-09T12:08:45;12.40;99.90
46508;DHT22;32223;53.654;10.014;2023-10-09T12:11:13;12.50;99.90
46508;DHT22;32223;53.654;10.014;2023-10-09T12:13:40;12.50;99.90
46508;DHT22;32223;53.654;10.014;2023-10-09T12:16:08;12.50;99.90
46508;DHT22;32223;53.654;10.014;2023-10-09T12:18:35;12.50;99.90
46508;DHT22;32223;53.654;10.014;2023-10-09T12:21:01;12.60;99.90
46508;DHT22;32223;53.654;10.014;2023-10-09T12:23:30;12.60;99.90
46508;DHT22;32223;53.654;10.014;2023-10-09T12:26:02;12.60;99.90
46508;DHT22;32223;53.654;10.014;2023-10-09T12:28:28;12.60;99.90
46508;DHT22;32223;53.654;10.014;2023-10-09T12:30:55;12.50;99.90
46508;DHT22;32223;53.654;10.014;2023-10-09T12:33:27;12.50;99.90
46508;DHT22;32223;53.654;10.014;2023-10-09T12:35:54;12.50;99.90
46508;DHT22;32223;53.654;10.014;2023-10-09T12:38:27;12.50;99.90
46508;DHT22;32223;53.654;10.014;2023-10-09T12:41:07;12.60;99.90
46508;DHT22;32223;53.654;10.014;2023-10-09T12:43:46;12.70;99.90
46508;DHT22;32223;53.654;10.014;2023-10-09T12:46:12;12.70;99.90
46508;DHT22;32223;53.654;10.014;2023-10-09T12:48:44;12.80;99.90
46508;DHT22;32223;53.654;10.014;2023-10-09T12:51:14;12.70;99.90
46508;DHT22;32223;53.654;10.014;2023-10-09T12:53:43;12.80;99.90
46508;DHT22;32223;53.654;10.014;2023-10-09T12:56:09;12.80;99.90
46508;DHT22;32223;53.654;10.014;2023-10-09T12:58:37;12.80;99.90
46508;DHT22;32223;53.654;10.014;2023-10-09T13:01:04;12.80;99.90
46508;DHT22;32223;53.654;10.014;2023-10-09T13:03:37;12.80;99.90
46508;DHT22;32223;53.654;10.014;2023-10-09T13:06:04;12.90;99.90
46508;DHT22;32223;53.654;10.014;2023-10-09T13:08:36;13.00;99.90
46508;DHT22;32223;53.654;10.014;2023-10-09T13:11:04;13.10;99.90
46508;DHT22;32223;53.654;10.014;2023-10-09T13:13:37;13.10;99.90
46508;DHT22;32223;53.654;10.014;2023-10-09T13:16:14;13.10;99.90
46508;DHT22;32223;53.654;10.014;2023-10-09T13:18:59;13.20;99.90
46508;DHT22;32223;53.654;10.014;2023-10-09T13:21:31;13.20;99.90
46508;DHT22;32223;53.654;10.014;2023-10-09T13:24:03;13.30;99.90
46508;DHT22;32223;53.654;10.014;2023-10-09T13:26:29;13.40;99.90
46508;DHT22;32223;53.654;10.014;2023-10-09T13:29:01;13.40;99.90
46508;DHT22;32223;53.654;10.014;2023-10-09T13:31:29;13.40;99.90
46508;DHT22;32223;53.654;10.014;2023-10-09T13:33:57;13.40;99.90
46508;DHT22;32223;53.654;10.014;2023-10-09T13:36:25;13.40;99.90
46508;DHT22;32223;53.654;10.014;2023-10-09T13:38:58;13.40;99.90
46508;DHT22;32223;53.654;10.014;2023-10-09T13:41:27;13.40;99.90
46508;DHT22;32223;53.654;10.014;2023-10-09T13:43:55;13.40;99.90
46508;DHT22;32223;53.654;10.014;2023-10-09T13:46:22;13.50;99.90
46508;DHT22;32223;53.654;10.014;2023-10-09T13:48:49;13.50;99.90
46508;DHT22;32223;53.654;10.014;2023-10-09T13:51:15;13.50;99.90
46508;DHT22;32223;53.654;10.014;2023-10-09T13:53:45;13.50;99.90
46508;DHT22;32223;53.654;10.014;2023-10-09T13:56:12;13.50;99.90
46508;DHT22;32223;53.654;10.014;2023-10-09T13:58:40;13.50;99.90
46508;DHT22;32223;53.654;10.014;2023-10-09T14:01:08;13.50;99.90
46508;DHT22;32223;53.654;10.014;2023-10-09T14:03:34;13.60;99.90
46508;DHT22;32223;53.654;10.014;2023-10-09T14:05:59;13.60;99.90
46508;DHT22;32223;53.654;10.014;2023-10-09T14:08:36;13.60;99.90
46508;DHT22;32223;53.654;10.014;2023-10-09T14:11:08;13.60;99.90
46508;DHT22;32223;53.654;10.014;2023-10-09T14:13:39;13.50;99.90
46508;DHT22;32223;53.654;10.014;2023-10-09T14:16:05;13.50;99.90
46508;DHT22;32223;53.654;10.014;2023-10-09T14:18:32;13.50;99.90
46508;DHT22;32223;53.654;10.014;2023-10-09T14:21:01;13.50;99.90
46508;DHT22;32223;53.654;10.014;2023-10-09T14:23:30;13.50;99.90
46508;DHT22;32223;53.654;10.014;2023-10-09T14:26:00;13.50;99.90
46508;DHT22;32223;53.654;10.014;2023-10-09T14:28:27;13.50;99.90
46508;DHT22;32223;53.654;10.014;2023-10-09T14:30:54;13.50;99.90
46508;DHT22;32223;53.654;10.014;2023-10-09T14:33:25;13.50;99.90
46508;DHT22;32223;53.654;10.014;2023-10-09T14:35:54;13.50;99.90
46508;DHT22;32223;53.654;10.014;2023-10-09T14:38:20;13.40;99.90
46508;DHT22;32223;53.654;10.014;2023-10-09T14:40:52;13.40;99.90
46508;DHT22;32223;53.654;10.014;2023-10-09T14:43:23;13.30;99.90
46508;DHT22;32223;53.654;10.014;2023-10-09T14:45:54;13.30;99.90
46508;DHT22;32223;53.654;10.014;2023-10-09T14:48:20;13.30;99.90
46508;DHT22;32223;53.654;10.014;2023-10-09T14:50:52;13.30;99.90
46508;DHT22;32223;53.654;10.014;2023-10-09T14:53:19;13.30;99.90
46508;DHT22;32223;53.654;10.014;2023-10-09T14:55:45;13.30;99.90
46508;DHT22;32223;53.654;10.014;2023-10-09T14:58:11;13.20;99.90
46508;DHT22;32223;53.654;10.014;2023-10-09T15:00:37;13.20;99.90
46508;DHT22;32223;53.654;10.014;2023-10-09T15:03:04;13.20;99.90
46508;DHT22;32223;53.654;10.014;2023-10-09T15:05:30;13.20;99.90
46508;DHT22;32223;53.654;10.014;2023-10-09T15:07:59;13.20;99.90
46508;DHT22;32223;53.654;10.014;2023-10-09T15:10:26;13.30;99.90
46508;DHT22;32223;53.654;10.014;2023-10-09T15:12:53;13.30;99.90
46508;DHT22;32223;53.654;10.014;2023-10-09T15:15:19;13.30;99.90
46508;DHT22;32223;53.654;10.014;2023-10-09T15:17:50;13.30;99.90
46508;DHT22;32223;53.654;10.014;2023-10-09T15:20:16;13.30;99.90
46508;DHT22;32223;53.654;10.014;2023-10-09T15:22:42;13.30;99.90
46508;DHT22;32223;53.654;10.014;2023-10-09T15:25:08;13.40;99.90
46508;DHT22;32223;53.654;10.014;2023-10-09T15:27:34;13.40;99.90
46508;DHT22;32223;53.654;10.014;2023-10-09T15:29:59;13.50;99.90
46508;DHT22;32223;53.654;10.014;2023-10-09T15:32:25;13.50;99.90
46508;DHT22;32223;53.654;10.014;2023-10-09T15:34:57;13.50;99.90
46508;DHT22;32223;53.654;10.014;2023-10-09T15:37:23;13.50;99.90
46508;DHT22;32223;53.654;10.014;2023-10-09T15:39:49;13.50;99.90
46508;DHT22;32223;53.654;10.014;2023-10-09T15:42:15;13.50;99.90
46508;DHT22;32223;53.654;10.014;2023-10-09T15:44:42;13.50;99.90
46508;DHT22;32223;53.654;10.014;2023-10-09T15:47:07;13.40;99.90
46508;DHT22;32223;53.654;10.014;2023-10-09T15:49:34;13.40;99.90
46508;DHT22;32223;53.654;10.014;2023-10-09T15:52:06;13.50;99.90
46508;DHT22;32223;53.654;10.014;2023-10-09T15:54:34;13.50;99.90
46508;DHT22;32223;53.654;10.014;2023-10-09T15:57:00;13.40;99.90
46508;DHT22;32223;53.654;10.014;2023-10-09T15:59:26;13.40;99.90
46508;DHT22;32223;53.654;10.014;2023-10-09T16:01:51;13.40;99.90
46508;DHT22;32223;53.654;10.014;2023-10-09T16:04:18;13.40;99.90
46508;DHT22;32223;53.654;10.014;2023-10-09T16:06:44;13.40;99.90
46508;DHT22;32223;53.654;10.014;2023-10-09T16:09:09;13.40;99.90